Trustee Sales

Below is a list of all active and inactive Trustee’s Sales we are currently servicing. To find more information about individual sales, click the ‘Expand’ button. For your convenience, you may print the information. Our lists are updated every two hours to keep the most current information available to you. If you are in need of information not listed below, please call 623-581-3262.

Monday, February 9th, 2015 to Friday, February 13th, 2015

Sale Date File Number Property Address Zipcode Status
2/11/2015 14-26205 6725 W. Medlock Drive, Glendale 85303 Closed Expand
2/11/2015 14-26204 635 E. Pearl Street, Benson 85602 Closed Expand

Monday, February 16th, 2015 to Friday, February 20th, 2015

Sale Date File Number Property Address Zipcode Status
2/18/2015 14-17205 1811 Hereford Drive, Prescott 86305 Closed Expand
2/18/2015 14-31114 5618 N. 61st Lane, Glendale 85301 Closed Expand
2/19/2015 14-26194 4607 S. 16th Street, Phoenix 85040 Closed Expand

Monday, February 23rd, 2015 to Friday, February 27th, 2015

Sale Date File Number Property Address Zipcode Status
2/24/2015 14-7031 7709 E. Vancouver Place, Tucson 85730 Closed Expand

Monday, March 2nd, 2015 to Friday, March 6th, 2015

Sale Date File Number Property Address Zipcode Status
3/03/2015 14-31115 5648 S. 44th Place, Phoenix 85040 Closed Expand
3/03/2015 14-32023 11275 N. 99th Avenue, Peoria 85345 Active Expand

Monday, March 9th, 2015 to Friday, March 13th, 2015

Sale Date File Number Property Address Zipcode Status
3/13/2015 11-1326 2581 North Eagle View Loop, Show Low 85901 Active Expand
3/13/2015 11-1327 Multiple Parcels, Show Low Active Expand
3/13/2015 13-26150 27 E. 7th Street, Tempe 85281 Active Expand
3/13/2015 11-1329 2681 Eagle View Circle, Show Low 85901 Active Expand
3/13/2015 213008 Kaur 9321 W. Elm Street, Phoenix 85037 Active Expand
3/13/2015 11-1328 4541, 4551, 4561, 4571, Show Low 85901 Active Expand
3/13/2015 13-7027 4851 E. Broadway Blvd, Tucson 85711 Active Expand
3/13/2015 14-34049 303 E. Evelyn Street, Casa Grande 85122 Active Expand
3/13/2015 14-26209 936 E Williams Field Road, Gilbert 85296 Active Expand
3/13/2015 14-26208 780 S. Hamilton Street, Chandler 85225 Active Expand
3/13/2015 14-7029 8040 North 43rd Avenue, Glendale 85302 Active Expand
3/13/2015 14-34042 1906 E. Southern Avenue, Phoenix 85040 Active Expand

Monday, March 16th, 2015 to Friday, March 20th, 2015

Sale Date File Number Property Address Zipcode Status
3/16/2015 13-31070 715 Clark Street, Jerome 86331 Active Expand
3/17/2015 14-34051 5610 S. 20th Lane, Phoenix 85041 Active Expand
3/17/2015 14-32024 2827 West Keim Drive, Phoenix 85017 Active Expand
3/17/2015 14-26202 2300 E. Hearne Avenue, Kingman 86401 Active Expand
3/18/2015 13-12177 4495 S. Coach Drive, Tucson 85714 Active Expand
3/20/2015 09-12104 1513 W. Hatcher Road, Phoenix 85021 Active Expand
3/20/2015 10-1317 726 W. Vogel Avenue, Phoenix 85021 Active Expand

Monday, March 23rd, 2015 to Friday, March 27th, 2015

Sale Date File Number Property Address Zipcode Status
3/25/2015 14-7028 201 W. Fry Bouldevard, Sierra Vist 85635 Active Expand

Monday, March 30th, 2015 to Friday, April 3rd, 2015

Sale Date File Number Property Address Zipcode Status
3/31/2015 14-31120 8119 E. Apache Trail, Mesa 85207 Active Expand
4/03/2015 13-34001 4756 Diamond M. Ranch Rd., Kingman 86401 Active Expand

Monday, April 6th, 2015 to Friday, April 10th, 2015

Sale Date File Number Property Address Zipcode Status
4/07/2015 14-26210 7302 E. Granada, Scottsdale 85257 Closed Expand
4/07/2015 14-34052 5315 W. Wethersfield Road, Glendale 85304 Active Expand

Monday, April 13th, 2015 to Friday, April 17th, 2015

Sale Date File Number Property Address Zipcode Status
4/14/2015 14-26214 1454 East 1st Avenue, Eagar 85925 Active Expand

Monday, April 20th, 2015 to Friday, April 24th, 2015

Sale Date File Number Property Address Zipcode Status
4/21/2015 15-17211 5345 E. McClellan Road # 1, Mesa 85205 Active Expand
4/21/2015 14-26211 3226 W. Taylor Street, Phoenix 85009 Closed Expand

Monday, April 27th, 2015 to Friday, May 1st, 2015

Sale Date File Number Property Address Zipcode Status
5/01/2015 09-1278 12180 E. Turquoise, Dewey 86327 Active Expand

Monday, May 4th, 2015 to Friday, May 8th, 2015

Sale Date File Number Property Address Zipcode Status
5/06/2015 13-31064 15814 N. 83rd Avenue, Peoria 85382 Active Expand

Monday, May 11th, 2015 to Friday, May 15th, 2015

Sale Date File Number Property Address Zipcode Status
5/12/2015 15-26217 6841 N. 77th Lane, Glendale 85303 Active Expand
5/13/2015 14-34036 11320 East Broadway Road, Mesa 85208 Active Expand
5/15/2015 15-26215 5309 SR 260 Hwy., Pinedale 85934 Active Expand

Monday, May 25th, 2015 to Friday, May 29th, 2015

Sale Date File Number Property Address Zipcode Status
5/27/2015 14-26212 1111 & 1113 Industrial Drive, Kearney 85237 Active Expand
5/29/2015 12-1042 2416 West Cordia Lane, Phoenix 85085 Active Expand

Monday, August 10th, 2015 to Friday, August 14th, 2015

Sale Date File Number Property Address Zipcode Status
8/14/2015 Dummy 449 Closed Expand